Time;durP1;ratioP1;P1;durP2;ratioP2;P2;SDS_P1;SDS_P2;PMS_P1;PMS_P2;Temp;Humidity;BMP_temperature;BMP_pressure;BME280_temperature;BME280_humidity;BME280_pressure;Samples;Min_cycle;Max_cycle;Signal;HPM_P1;HPM_P2
2024/02/14 00:00:57;;;;;;;;;;;;;;;6.42;88.59;100975.44;5033709;28;20060;-86
2024/02/14 00:03:25;;;;;;;0.85;0.85;;;;;;;6.42;89.00;100970.22;5068084;28;19924;-85
2024/02/14 00:05:52;;;;;;;1.95;1.08;;;;;;;6.39;89.30;100967.59;5050898;28;20515;-84
2024/02/14 00:08:18;;;;;;;1.80;1.15;;;;;;;6.37;89.64;100966.69;5038072;28;20052;-85
2024/02/14 00:10:45;;;;;;;1.27;1.00;;;;;;;6.33;89.95;100960.56;5033314;28;20064;-85
2024/02/14 00:13:11;;;;;;;0.85;0.85;;;;;;;6.31;90.58;100957.09;5051719;28;20048;-85
2024/02/14 00:15:38;;;;;;;2.95;1.10;;;;;;;6.33;91.10;100960.56;5031618;28;20053;-84
2024/02/14 00:18:05;;;;;;;1.13;0.90;;;;;;;6.37;91.69;100958.91;5033556;28;20063;-85
2024/02/14 00:20:32;;;;;;;0.95;0.82;;;;;;;6.39;91.58;100952.00;5034406;28;20082;-85
2024/02/14 00:22:59;;;;;;;1.48;0.85;;;;;;;6.41;91.61;100951.16;5033316;28;20052;-84
2024/02/14 00:25:25;;;;;;;1.92;0.80;;;;;;;6.41;91.37;100951.16;5040898;28;20500;-85
2024/02/14 00:27:54;;;;;;;0.98;0.82;;;;;;;6.42;91.45;100947.69;5050241;28;20037;-85
2024/02/14 00:30:22;;;;;;;1.35;1.02;;;;;;;6.40;91.93;100946.81;5049312;28;20044;-85
2024/02/14 00:32:49;;;;;;;1.05;0.98;;;;;;;6.39;92.35;100939.88;5033692;28;20099;-85
2024/02/14 00:35:16;;;;;;;2.22;0.88;;;;;;;6.38;92.32;100935.50;5081376;23;20109;-86
2024/02/14 00:37:42;;;;;;;1.30;0.80;;;;;;;6.37;92.90;100938.09;5026649;28;20091;-85
2024/02/14 00:40:11;;;;;;;1.58;1.00;;;;;;;6.37;92.92;100925.09;4996344;28;20053;-85
2024/02/14 00:45:11;;;;;;;1.63;0.98;;;;;;;6.28;94.73;100924.13;5058501;28;20106;-86
2024/02/14 00:47:45;;;;;;;3.55;1.00;;;;;;;6.24;94.99;100921.47;5017126;28;20049;-84
2024/02/14 00:50:13;;;;;;;1.65;0.63;;;;;;;6.22;96.78;100923.16;5024478;28;20053;-84
2024/02/14 00:52:43;;;;;;;6.93;1.35;;;;;;;6.19;97.34;100920.53;5028971;28;20052;-83
2024/02/14 00:55:10;;;;;;;1.75;1.15;;;;;;;6.16;98.17;100918.75;5035530;28;20079;-85
2024/02/14 00:57:38;;;;;;;0.68;0.63;;;;;;;6.13;99.00;100914.38;5045608;28;20080;-83
2024/02/14 01:00:06;;;;;;;1.50;1.10;;;;;;;6.16;98.95;100907.50;5045025;28;20040;-85
2024/02/14 01:02:33;;;;;;;1.10;1.02;;;;;;;6.17;99.27;100917.06;5033844;28;20048;-86
2024/02/14 01:04:59;;;;;;;3.00;1.38;;;;;;;6.19;99.45;100897.13;5036629;28;20489;-85
2024/02/14 01:07:26;;;;;;;1.67;1.23;;;;;;;6.21;99.27;100906.69;5037069;28;20048;-84
2024/02/14 01:09:53;;;;;;;1.17;0.90;;;;;;;6.26;99.38;100904.16;5055312;28;20041;-84
2024/02/14 01:12:19;;;;;;;3.35;2.47;;;;;;;6.26;99.29;100892.03;5044337;28;20064;-85
2024/02/14 01:14:46;;;;;;;1.38;1.25;;;;;;;6.29;98.90;100883.41;5035628;28;20098;-85
2024/02/14 01:17:12;;;;;;;5.57;2.45;;;;;;;6.29;98.72;100883.41;5055116;28;20075;-85
2024/02/14 01:19:39;;;;;;;3.60;2.15;;;;;;;6.32;98.55;100890.34;5038417;28;20599;-86
2024/02/14 01:22:08;;;;;;;2.78;1.50;;;;;;;6.37;98.61;100889.56;5034664;28;20062;-85
2024/02/14 01:24:35;;;;;;;2.22;1.67;;;;;;;6.37;98.45;100883.50;5030496;28;20037;-85
2024/02/14 01:27:05;;;;;;;4.60;2.50;;;;;;;6.40;97.97;100878.31;5031622;28;20102;-85
2024/02/14 01:29:31;;;;;;;5.90;1.95;;;;;;;6.45;97.73;100889.66;5035317;28;20055;-86
2024/02/14 01:31:58;;;;;;;4.47;1.30;;;;;;;6.48;97.24;100878.41;5045220;28;20049;-86
2024/02/14 01:34:28;;;;;;;2.47;1.35;;;;;;;6.50;96.29;100885.38;5036605;28;20136;-85
2024/02/14 01:36:55;;;;;;;1.33;1.15;;;;;;;6.52;96.47;100878.47;5026157;28;20072;-84
2024/02/14 01:39:22;;;;;;;1.27;1.17;;;;;;;6.50;96.07;100871.50;5048032;28;20041;-84
2024/02/14 01:41:49;;;;;;;4.55;1.02;;;;;;;6.50;96.24;100868.91;5042135;28;20347;-85
2024/02/14 01:44:17;;;;;;;1.02;1.02;;;;;;;6.49;96.91;100869.75;5052217;28;20492;-83
2024/02/14 01:46:44;;;;;;;2.30;1.40;;;;;;;6.48;96.59;100868.00;5049209;28;20101;-85
2024/02/14 01:49:14;;;;;;;3.60;1.55;;;;;;;6.47;97.17;100861.94;5060477;28;20584;-85
2024/02/14 01:51:44;;;;;;;5.22;1.73;;;;;;;6.43;97.84;100860.16;5032638;28;20495;-86
2024/02/14 01:54:13;;;;;;;1.90;1.75;;;;;;;6.46;97.71;100855.00;5039140;28;20117;-87
2024/02/14 01:56:40;;;;;;;1.77;1.23;;;;;;;6.39;98.42;100848.84;5034751;28;20048;-84
2024/02/14 01:59:08;;;;;;;3.35;1.80;;;;;;;6.41;98.83;100841.06;5054452;28;20146;-85
2024/02/14 02:01:35;;;;;;;1.70;1.40;;;;;;;6.38;99.46;100838.44;5037961;28;20052;-85
2024/02/14 02:04:02;;;;;;;5.50;2.78;;;;;;;6.33;100.00;100838.38;5038316;28;20130;-84
2024/02/14 02:06:30;;;;;;;2.35;1.20;;;;;;;6.35;100.00;100838.38;5051075;28;20540;-85
2024/02/14 02:08:57;;;;;;;1.95;1.08;;;;;;;6.36;100.00;100842.75;5048633;28;20056;-85
2024/02/14 02:11:23;;;;;;;3.83;1.23;;;;;;;6.38;100.00;100851.44;5054762;28;20055;-85
2024/02/14 02:13:50;;;;;;;1.52;1.42;;;;;;;6.40;100.00;100841.91;5038513;28;20048;-84
2024/02/14 02:16:18;;;;;;;2.00;1.42;;;;;;;6.40;100.00;100836.72;5040173;28;20131;-84
2024/02/14 02:18:46;;;;;;;3.15;1.60;;;;;;;6.37;100.00;100837.53;5035783;28;20040;-85
2024/02/14 02:21:13;;;;;;;2.13;1.30;;;;;;;6.39;100.00;100837.59;5036689;28;20485;-85
2024/02/14 02:23:45;;;;;;;1.52;1.15;;;;;;;6.36;100.00;100827.13;5052267;28;20563;-86
2024/02/14 02:26:12;;;;;;;4.25;2.33;;;;;;;6.35;100.00;100825.38;5040494;28;20041;-85
2024/02/14 02:28:39;;;;;;;7.95;2.05;;;;;;;6.25;100.00;100822.69;5031951;28;20044;-85
2024/02/14 02:31:07;;;;;;;2.60;1.67;;;;;;;6.15;100.00;100828.63;5052681;28;20055;-86
2024/02/14 02:33:33;;;;;;;4.28;1.63;;;;;;;6.00;100.00;100826.72;5036649;28;20702;-85
2024/02/14 02:36:00;;;;;;;7.07;2.13;;;;;;;5.85;100.00;100822.16;5040401;28;20127;-84
2024/02/14 02:38:26;;;;;;;3.55;1.73;;;;;;;5.74;100.00;100814.22;5053940;28;20133;-85
2024/02/14 02:40:53;;;;;;;2.10;1.98;;;;;;;5.68;100.00;100808.09;5041561;28;20179;-85
2024/02/14 02:43:21;;;;;;;3.72;1.77;;;;;;;5.58;100.00;100807.97;5053974;28;20117;-84
2024/02/14 02:45:48;;;;;;;3.35;2.55;;;;;;;5.56;100.00;100801.84;5042858;28;20494;-84
2024/02/14 02:48:14;;;;;;;4.57;2.08;;;;;;;5.56;100.00;100801.84;5046378;28;20051;-84
2024/02/14 02:50:42;;;;;;;3.97;2.20;;;;;;;5.58;100.00;100802.78;5058335;28;20060;-86
2024/02/14 02:53:08;;;;;;;3.08;1.63;;;;;;;5.59;100.00;100793.25;5035419;28;20055;-84
2024/02/14 02:55:36;;;;;;;4.30;2.00;;;;;;;5.61;100.00;100792.41;5046899;28;20126;-85
2024/02/14 02:58:05;;;;;;;3.30;1.88;;;;;;;5.66;100.00;100794.19;5057933;28;20068;-84
2024/02/14 03:00:31;;;;;;;4.50;2.40;;;;;;;5.66;100.00;100789.00;5053035;28;20053;-84
2024/02/14 03:02:58;;;;;;;5.95;1.90;;;;;;;5.67;100.00;100782.97;5055213;28;20059;-85
2024/02/14 03:05:25;;;;;;;3.88;2.17;;;;;;;5.68;100.00;100779.50;5035888;28;20306;-85
2024/02/14 03:07:52;;;;;;;5.85;2.10;;;;;;;5.69;100.00;100774.34;5052654;28;20037;-86
2024/02/14 03:10:20;;;;;;;3.20;2.63;;;;;;;5.71;100.00;100771.75;5032691;28;20051;-85
2024/02/14 03:12:48;;;;;;;5.63;2.50;;;;;;;5.71;100.00;100771.75;5048686;28;20049;-86
2024/02/14 03:15:16;;;;;;;8.27;3.20;;;;;;;5.72;100.00;100769.19;5037483;28;20056;-83
2024/02/14 03:17:43;;;;;;;5.55;2.53;;;;;;;5.77;100.00;100764.03;5060547;28;20052;-84
2024/02/14 03:20:12;;;;;;;2.40;2.05;;;;;;;5.79;100.00;100770.16;5048268;28;20496;-84
2024/02/14 03:22:43;;;;;;;4.65;2.20;;;;;;;5.83;100.00;100761.53;5046781;28;20044;-84
2024/02/14 03:25:10;;;;;;;2.67;2.20;;;;;;;5.88;100.00;100769.38;5043025;28;20051;-86
2024/02/14 03:27:37;;;;;;;5.00;2.42;;;;;;;5.93;100.00;100765.09;5035258;28;20084;-85
2024/02/14 03:30:04;;;;;;;3.45;2.15;;;;;;;5.95;100.00;100764.25;5034789;28;20045;-86
2024/02/14 03:32:34;;;;;;;3.28;2.17;;;;;;;5.98;100.00;100758.25;5035166;28;20124;-84
2024/02/14 03:35:01;;;;;;;7.28;2.95;;;;;;;6.00;100.00;100753.06;5054377;28;20056;-85
2024/02/14 03:37:28;;;;;;;6.78;2.22;;;;;;;6.07;100.00;100752.31;5033543;28;20056;-85
2024/02/14 03:39:54;;;;;;;3.30;2.40;;;;;;;6.08;100.00;100747.13;5032782;28;20083;-85
2024/02/14 03:42:21;;;;;;;3.20;2.55;;;;;;;6.12;100.00;100753.22;5034308;28;20135;-84
2024/02/14 03:44:47;;;;;;;2.42;2.22;;;;;;;6.15;100.00;100745.44;5035214;28;20110;-84
2024/02/14 03:47:14;;;;;;;4.88;2.25;;;;;;;6.16;100.00;100742.00;5035332;28;20399;-84
2024/02/14 03:49:41;;;;;;;3.28;2.00;;;;;;;6.16;100.00;100731.59;5030914;28;20052;-85
2024/02/14 03:52:09;;;;;;;4.10;2.20;;;;;;;6.19;100.00;100742.06;5032046;28;20044;-86
2024/02/14 03:54:37;;;;;;;3.67;2.33;;;;;;;6.22;100.00;100729.06;5034664;28;20056;-85
2024/02/14 03:57:07;;;;;;;7.32;2.72;;;;;;;6.28;100.00;100723.94;5053850;28;20457;-85
2024/02/14 03:59:38;;;;;;;3.10;2.13;;;;;;;6.31;100.00;100720.50;5018255;28;20048;-85
2024/02/14 04:02:06;;;;;;;3.42;2.15;;;;;;;6.29;100.00;100722.22;5023722;28;20053;-84
2024/02/14 04:04:38;;;;;;;3.50;2.50;;;;;;;6.32;100.00;100714.44;5032940;28;20175;-83
2024/02/14 04:07:08;;;;;;;3.85;2.40;;;;;;;6.26;100.00;100714.38;5033270;28;20110;-86
2024/02/14 04:09:39;;;;;;;3.80;2.22;;;;;;;6.27;100.00;100710.91;5049668;28;20059;-86
2024/02/14 04:12:06;;;;;;;3.42;1.40;;;;;;;6.30;100.00;100718.75;5055532;28;20041;-84
2024/02/14 04:14:36;;;;;;;2.97;2.22;;;;;;;6.32;100.00;100714.44;5055691;28;20176;-84
2024/02/14 04:17:03;;;;;;;2.35;1.75;;;;;;;6.39;100.00;100716.25;5034018;28;20044;-85
2024/02/14 04:19:29;;;;;;;4.70;2.17;;;;;;;6.43;100.00;100711.94;5053627;28;20118;-85
2024/02/14 04:21:56;;;;;;;1.60;1.50;;;;;;;6.44;100.00;100717.16;5046592;28;20041;-84
2024/02/14 04:24:23;;;;;;;4.78;2.60;;;;;;;6.45;100.00;100720.63;5047489;28;20044;-83
2024/02/14 04:26:49;;;;;;;6.93;2.33;;;;;;;6.46;100.00;100715.41;5064486;28;20079;-84
2024/02/14 04:29:16;;;;;;;4.68;1.55;;;;;;;6.47;100.00;100718.91;5035242;28;20049;-86
2024/02/14 04:31:46;;;;;;;3.42;1.85;;;;;;;6.44;100.00;100718.88;5047027;28;20110;-84
2024/02/14 04:34:13;;;;;;;5.53;2.17;;;;;;;6.40;100.00;100715.38;5032974;28;20048;-84
2024/02/14 04:36:40;;;;;;;4.50;2.08;;;;;;;6.37;100.00;100722.28;5035312;28;20523;-86
2024/02/14 04:39:09;;;;;;;4.00;2.15;;;;;;;6.37;100.00;100722.28;5032612;28;20048;-87
2024/02/14 04:41:37;;;;;;;4.35;2.35;;;;;;;6.28;100.00;100715.25;5044419;28;20144;-86
2024/02/14 04:44:06;;;;;;;3.92;2.42;;;;;;;6.21;100.00;100716.06;5035984;28;20052;-86
2024/02/14 04:46:34;;;;;;;3.70;2.97;;;;;;;6.12;100.00;100725.50;5029700;28;20463;-86
2024/02/14 04:49:02;;;;;;;4.30;2.58;;;;;;;6.06;100.00;100730.66;5033587;28;20049;-86
2024/02/14 04:51:32;;;;;;;6.40;2.15;;;;;;;6.03;100.00;100734.94;5032058;28;20083;-85
2024/02/14 04:53:59;;;;;;;5.80;2.38;;;;;;;6.01;100.00;100731.44;5030573;28;20041;-84
2024/02/14 04:56:27;;;;;;;3.55;1.85;;;;;;;6.00;100.00;100732.28;5028471;28;20616;-86
2024/02/14 04:58:55;;;;;;;1.88;1.77;;;;;;;6.00;100.00;100738.38;5007284;28;20140;-85
2024/02/14 05:01:22;;;;;;;3.15;2.38;;;;;;;6.02;100.00;100739.25;5025335;28;20599;-85
2024/02/14 05:03:54;;;;;;;3.33;2.22;;;;;;;6.03;100.00;100737.53;5037511;28;20084;-85
2024/02/14 05:06:21;;;;;;;6.35;2.42;;;;;;;6.05;100.00;100736.69;5027928;28;20044;-85
2024/02/14 05:08:47;;;;;;;3.70;3.30;;;;;;;6.08;100.00;100734.13;5027505;28;20132;-86
2024/02/14 05:11:15;;;;;;;4.47;2.50;;;;;;;6.10;100.00;100732.44;5043493;28;20115;-85
2024/02/14 05:13:42;;;;;;;3.55;2.67;;;;;;;6.13;100.00;100741.97;5028618;28;20037;-86
2024/02/14 05:16:10;;;;;;;7.32;2.55;;;;;;;6.17;100.00;100746.34;5043036;28;20029;-85
2024/02/14 05:18:38;;;;;;;3.47;2.10;;;;;;;6.17;100.00;100740.28;5029825;28;20040;-85
2024/02/14 05:21:09;;;;;;;5.45;2.20;;;;;;;6.19;100.00;100741.16;5024249;28;20072;-86
2024/02/14 05:23:36;;;;;;;4.25;1.98;;;;;;;6.46;100.00;100732.75;5029632;28;20057;-85
2024/02/14 05:26:07;;;;;;;6.63;2.75;;;;;;;8.05;100.00;100743.28;5023643;28;20147;-85
2024/02/14 05:28:34;;;;;;;3.80;2.83;;;;;;;7.20;100.00;100742.88;5025949;28;20068;-86
2024/02/14 05:31:01;;;;;;;3.58;2.25;;;;;;;6.82;100.00;100749.56;5029335;28;20040;-86
2024/02/14 05:33:31;;;;;;;5.38;2.17;;;;;;;6.76;100.00;100750.34;5035027;28;20106;-85
2024/02/14 05:35:58;;;;;;;3.72;3.20;;;;;;;6.61;100.00;100725.09;5041499;28;20072;-86
2024/02/14 05:38:24;;;;;;;4.95;3.17;;;;;;;6.56;100.00;100725.94;5024295;28;20571;-84
2024/02/14 05:40:51;;;;;;;3.50;2.80;;;;;;;6.54;100.00;100714.63;5023584;28;20041;-87
2024/02/14 05:43:18;;;;;;;7.53;3.17;;;;;;;6.56;100.00;100718.13;5026649;28;20449;-84
2024/02/14 05:45:45;;;;;;;6.03;1.98;;;;;;;6.62;100.00;100711.25;5023043;28;20594;-86
2024/02/14 05:48:14;;;;;;;7.80;2.95;;;;;;;6.66;100.00;100711.25;5047770;28;20079;-86
2024/02/14 05:50:41;;;;;;;8.43;2.72;;;;;;;6.60;100.00;100709.50;5024231;28;20056;-88
2024/02/14 05:53:12;;;;;;;5.60;3.17;;;;;;;6.66;100.00;100709.50;5044513;28;20136;-83
2024/02/14 05:55:39;;;;;;;7.40;2.92;;;;;;;6.68;100.00;100699.16;5026557;28;20037;-86
2024/02/14 05:58:09;;;;;;;4.65;2.60;;;;;;;6.67;100.00;100700.84;5035424;28;20045;-86
2024/02/14 06:00:42;;;;;;;3.53;2.47;;;;;;;6.65;100.00;100699.09;5029844;28;20087;-85
2024/02/14 06:03:09;;;;;;;2.97;2.67;;;;;;;6.63;100.00;100699.09;5023820;28;20045;-85
2024/02/14 06:05:39;;;;;;;4.97;2.83;;;;;;;6.68;100.00;100704.34;5041194;28;20120;-86
2024/02/14 06:08:08;;;;;;;5.13;2.22;;;;;;;6.66;100.00;100711.25;5039843;28;20051;-86
2024/02/14 06:10:39;;;;;;;3.78;1.90;;;;;;;6.64;100.00;100720.78;5029765;28;20041;-88
2024/02/14 06:13:14;;;;;;;6.57;2.80;;;;;;;6.63;100.00;100717.31;5041670;28;20335;-87
2024/02/14 06:15:41;;;;;;;5.28;2.55;;;;;;;6.65;100.00;100726.00;5031606;28;20603;-86
2024/02/14 06:18:07;;;;;;;10.43;2.90;;;;;;;6.67;100.00;100724.28;5024062;28;20049;-83
2024/02/14 06:20:37;;;;;;;4.47;2.80;;;;;;;6.68;100.00;100732.97;5027023;28;20037;-85
2024/02/14 06:23:04;;;;;;;5.88;2.58;;;;;;;6.67;100.00;100713.00;5046205;28;20060;-84
2024/02/14 06:25:31;;;;;;;3.83;2.33;;;;;;;6.72;100.00;100719.97;5026695;28;20136;-84
2024/02/14 06:27:57;;;;;;;4.10;2.58;;;;;;;6.75;100.00;100717.41;5024112;28;20579;-87
2024/02/14 06:30:24;;;;;;;4.28;2.40;;;;;;;6.76;100.00;100716.53;5034996;28;20041;-84
2024/02/14 06:32:51;;;;;;;2.92;2.20;;;;;;;6.77;100.00;100717.44;5025236;28;20048;-86
2024/02/14 06:35:18;;;;;;;2.38;2.20;;;;;;;6.74;100.00;100727.78;5033069;28;20037;-83
2024/02/14 06:37:46;;;;;;;2.95;2.28;;;;;;;6.67;100.00;100739.03;5028021;28;20060;-86
2024/02/14 06:40:15;;;;;;;3.05;2.30;;;;;;;6.69;100.00;100745.09;5048007;28;20049;-84
2024/02/14 06:42:42;;;;;;;4.38;2.65;;;;;;;6.69;100.00;100742.47;5046824;28;20306;-84
2024/02/14 06:45:09;;;;;;;4.65;3.42;;;;;;;6.72;100.00;100745.13;5036750;28;20567;-85
2024/02/14 06:47:42;;;;;;;4.32;2.05;;;;;;;6.64;100.00;100737.25;5030916;28;20207;-83
2024/02/14 06:50:10;;;;;;;3.00;2.72;;;;;;;6.59;100.00;100750.22;5030683;28;20098;-85
2024/02/14 06:52:36;;;;;;;4.57;2.53;;;;;;;6.61;100.00;100747.66;5045798;28;20044;-85
2024/02/14 06:55:06;;;;;;;2.45;2.25;;;;;;;6.63;100.00;100753.72;5026558;28;20053;-83
2024/02/14 06:57:33;;;;;;;3.63;1.85;;;;;;;6.62;100.00;100755.47;5048458;28;20049;-86
2024/02/14 07:00:00;;;;;;;4.22;2.60;;;;;;;6.67;100.00;100762.44;5033277;28;20135;-86
2024/02/14 07:02:28;;;;;;;5.28;2.80;;;;;;;6.71;100.00;100761.59;5035247;28;20044;-84
2024/02/14 07:04:55;;;;;;;3.08;2.05;;;;;;;6.75;100.00;100768.56;5044342;28;20045;-86
2024/02/14 07:07:22;;;;;;;2.65;2.15;;;;;;;6.76;100.00;100763.38;5049998;28;20036;-86
2024/02/14 07:09:48;;;;;;;2.60;1.77;;;;;;;6.74;100.00;100765.09;5026720;28;20038;-84
2024/02/14 07:12:15;;;;;;;3.60;1.90;;;;;;;6.76;100.00;100755.56;5032730;28;20144;-83
2024/02/14 07:14:42;;;;;;;14.38;3.00;;;;;;;6.80;100.00;100756.47;5029716;28;20132;-86
2024/02/14 07:17:09;;;;;;;2.72;2.05;;;;;;;6.82;100.00;100765.16;5032306;28;20037;-85
2024/02/14 07:19:38;;;;;;;2.30;2.13;;;;;;;6.85;100.00;100767.78;5034780;28;20047;-84
2024/02/14 07:22:06;;;;;;;2.30;2.08;;;;;;;6.86;100.00;100769.53;5031470;28;20041;-85
2024/02/14 07:24:32;;;;;;;4.00;2.13;;;;;;;6.87;100.00;100768.69;5031014;28;20056;-86
2024/02/14 07:26:59;;;;;;;3.78;1.98;;;;;;;6.91;100.00;100766.94;5043116;28;20147;-86
2024/02/14 07:29:27;;;;;;;1.83;1.67;;;;;;;6.86;100.00;100774.75;5028207;28;20049;-84
2024/02/14 07:31:58;;;;;;;2.33;1.75;;;;;;;6.90;100.00;100775.66;5031872;28;20120;-85
2024/02/14 07:34:25;;;;;;;4.00;2.17;;;;;;;6.94;100.00;100780.88;5032281;28;20044;-86
2024/02/14 07:36:52;;;;;;;4.43;1.98;;;;;;;6.98;100.00;100783.50;5016388;28;20039;-85
2024/02/14 07:39:18;;;;;;;3.70;1.40;;;;;;;7.03;100.00;100780.06;5047965;28;20056;-85
2024/02/14 07:41:45;;;;;;;1.77;1.52;;;;;;;7.05;100.00;100777.47;5048521;28;20091;-85
2024/02/14 07:44:13;;;;;;;1.63;1.13;;;;;;;7.14;100.00;100787.09;5048174;28;20111;-87
2024/02/14 07:46:41;;;;;;;3.00;1.17;;;;;;;7.14;100.00;100781.88;5036393;28;20041;-85
2024/02/14 07:49:10;;;;;;;2.28;1.38;;;;;;;7.21;100.00;100786.25;5043108;28;20040;-86
2024/02/14 07:51:37;;;;;;;2.33;0.88;;;;;;;7.26;100.00;100775.03;5041141;28;20132;-86
2024/02/14 07:54:07;;;;;;;1.40;1.30;;;;;;;7.29;100.00;100787.22;5046025;28;20825;-88
2024/02/14 07:56:36;;;;;;;2.45;0.82;;;;;;;7.34;100.00;100780.31;5035298;28;20047;-88
2024/02/14 07:59:05;;;;;;;1.63;1.52;;;;;;;7.38;100.00;100781.16;5032806;28;20165;-89
2024/02/14 08:01:32;;;;;;;1.25;0.93;;;;;;;7.45;100.00;100776.00;5030063;28;20047;-86
2024/02/14 08:03:59;;;;;;;0.90;0.90;;;;;;;7.46;100.00;100771.69;5029256;28;20056;-86
2024/02/14 08:06:28;;;;;;;0.93;0.93;;;;;;;7.55;100.00;100786.50;5017378;28;20063;-87
2024/02/14 08:08:58;;;;;;;0.90;0.90;;;;;;;7.62;100.00;100775.25;5037740;28;20063;-86
2024/02/14 08:11:29;;;;;;;2.45;0.57;;;;;;;7.68;100.00;100779.59;5033273;28;20040;-87
2024/02/14 08:13:55;;;;;;;0.70;0.70;;;;;;;7.73;100.00;100780.50;5051583;28;20492;-88
2024/02/14 08:16:26;;;;;;;0.38;0.38;;;;;;;7.74;100.00;100777.91;5032723;28;20037;-88
2024/02/14 08:19:00;;;;;;;0.55;0.55;;;;;;;7.83;100.00;100782.28;5045767;28;20048;-87
2024/02/14 08:21:27;;;;;;;0.28;0.28;;;;;;;7.92;100.00;100787.53;5032299;28;20060;-87
2024/02/14 08:23:55;;;;;;;0.82;0.82;;;;;;;7.99;100.00;100782.34;5029261;28;20052;-87
2024/02/14 08:26:24;;;;;;;0.75;0.70;;;;;;;8.05;100.00;100782.38;5028986;28;20041;-87
2024/02/14 08:28:54;;;;;;;0.57;0.57;;;;;;;8.08;100.00;100780.66;5042473;28;20053;-87
2024/02/14 08:31:21;;;;;;;0.73;0.52;;;;;;;8.15;100.00;100781.53;5050313;28;20054;-86
2024/02/14 08:33:48;;;;;;;0.57;0.57;;;;;;;8.13;100.00;100779.78;5029426;28;20047;-87
2024/02/14 08:36:18;;;;;;;0.65;0.52;;;;;;;8.16;100.00;100783.28;5010908;28;20072;-88
2024/02/14 08:38:48;;;;;;;0.65;0.30;;;;;;;8.18;100.00;100793.72;5046141;28;20060;-86
2024/02/14 08:41:15;;;;;;;0.82;0.40;;;;;;;8.22;100.00;100790.25;5041606;28;20132;-87
2024/02/14 08:43:41;;;;;;;0.82;0.82;;;;;;;8.21;100.00;100789.38;5033608;28;20053;-86
2024/02/14 08:46:14;;;;;;;0.57;0.57;;;;;;;8.18;100.00;100793.72;5032602;28;20106;-88
2024/02/14 08:48:45;;;;;;;0.68;0.68;;;;;;;8.20;100.00;100795.47;5033125;28;20636;-85
2024/02/14 08:51:14;;;;;;;0.60;0.60;;;;;;;8.21;100.00;100805.03;5032106;28;20049;-86
2024/02/14 08:53:47;;;;;;;1.98;0.57;;;;;;;8.26;100.00;100792.84;5031883;28;20072;-88
2024/02/14 08:56:16;;;;;;;0.60;0.60;;;;;;;8.22;100.00;100796.31;5019041;28;20095;-86
2024/02/14 08:58:44;;;;;;;0.50;0.47;;;;;;;8.22;100.00;100791.09;5022270;28;20057;-88
2024/02/14 09:01:14;;;;;;;0.75;0.75;;;;;;;8.21;100.00;100798.94;5041958;28;20057;-87
2024/02/14 09:03:49;;;;;;;0.50;0.50;;;;;;;8.29;100.00;100807.63;5042474;28;20068;-87
2024/02/14 09:06:24;;;;;;;1.23;1.13;;;;;;;8.36;100.00;100801.59;5033284;28;20065;-86
2024/02/14 09:08:52;;;;;;;2.70;1.35;;;;;;;8.40;100.00;100807.69;5034887;28;20045;-87
2024/02/14 09:11:20;;;;;;;1.60;1.50;;;;;;;8.41;100.00;100799.00;5041164;28;20161;-87
2024/02/14 09:13:49;;;;;;;2.40;1.52;;;;;;;8.45;100.00;100803.34;5043746;28;20064;-87
2024/02/14 09:16:18;;;;;;;1.38;1.38;;;;;;;8.54;100.00;100800.78;5025759;28;20041;-88
2024/02/14 09:18:46;;;;;;;3.55;3.22;;;;;;;8.61;100.00;100804.28;5030912;28;20530;-87
2024/02/14 09:21:15;;;;;;;2.88;2.67;;;;;;;8.72;100.00;100806.91;5027513;28;20143;-86
2024/02/14 09:23:42;;;;;;;2.72;2.53;;;;;;;8.81;100.00;100803.44;5027752;28;20040;-85
2024/02/14 09:26:09;;;;;;;2.97;2.78;;;;;;;8.84;100.00;100806.94;5029965;28;20048;-87
2024/02/14 09:28:36;;;;;;;3.90;3.60;;;;;;;8.85;100.00;100808.66;5047111;28;20471;-87
2024/02/14 09:31:05;;;;;;;4.15;3.47;;;;;;;8.90;100.00;100803.44;5045080;28;20076;-85
2024/02/14 09:33:32;;;;;;;6.22;4.10;;;;;;;8.96;100.00;100808.66;5030522;28;20103;-87
2024/02/14 09:36:00;;;;;;;4.25;3.85;;;;;;;8.99;100.00;100803.44;5043179;28;20044;-87
2024/02/14 09:38:27;;;;;;;4.68;4.28;;;;;;;9.10;100.00;100804.31;5032629;28;20036;-87
2024/02/14 09:40:56;;;;;;;4.80;3.60;;;;;;;9.17;100.00;100801.69;5027741;28;20137;-86
2024/02/14 09:43:30;;;;;;;4.10;3.80;;;;;;;9.24;100.00;100801.69;5050127;28;20113;-86
2024/02/14 09:45:57;;;;;;;4.45;4.05;;;;;;;9.35;100.00;100801.66;5031943;28;20427;-87
2024/02/14 09:48:26;;;;;;;4.20;3.90;;;;;;;9.50;100.00;100795.53;5042888;28;20456;-87
2024/02/14 09:50:54;;;;;;;4.50;4.10;;;;;;;9.63;100.00;100790.28;5039337;28;20530;-86
2024/02/14 09:53:22;;;;;;;6.50;4.75;;;;;;;9.65;100.00;100796.38;5045452;28;20040;-86
2024/02/14 09:55:51;;;;;;;5.18;4.13;;;;;;;9.65;100.00;100801.59;5023785;28;20492;-88
2024/02/14 09:58:20;;;;;;;4.30;4.00;;;;;;;9.65;100.00;100807.72;5025347;28;20795;-85
2024/02/14 10:00:47;;;;;;;4.75;4.35;;;;;;;9.69;100.00;100805.97;5045837;28;20064;-87
2024/02/14 10:03:16;;;;;;;7.95;4.18;;;;;;;9.71;100.00;100806.81;5049987;28;20123;-85
2024/02/14 10:05:42;;;;;;;4.13;3.70;;;;;;;9.68;100.00;100815.53;5036464;28;20109;-85
2024/02/14 10:08:12;;;;;;;5.40;3.95;;;;;;;9.72;100.00;100817.25;5029702;28;20048;-87
2024/02/14 10:10:40;;;;;;;6.50;4.47;;;;;;;9.77;100.00;100825.09;5048896;28;20338;-86
2024/02/14 10:13:07;;;;;;;4.90;4.47;;;;;;;9.75;100.00;100834.69;5035590;28;20441;-86
2024/02/14 10:15:36;;;;;;;3.90;3.60;;;;;;;9.74;100.00;100832.97;5032028;28;20048;-87
2024/02/14 10:18:03;;;;;;;4.03;3.72;;;;;;;9.80;100.00;100832.91;5033542;28;20051;-86
2024/02/14 10:20:32;;;;;;;3.85;3.53;;;;;;;9.86;100.00;100840.75;5029387;28;20049;-85
2024/02/14 10:23:12;;;;;;;4.72;4.32;;;;;;;9.86;100.00;100845.13;5046722;28;20160;-86
2024/02/14 10:25:43;;;;;;;6.43;3.65;;;;;;;9.85;100.00;100843.38;5047760;28;20056;-86
2024/02/14 10:28:10;;;;;;;4.28;3.55;;;;;;;9.90;100.00;100845.09;5042972;28;20642;-86
2024/02/14 10:30:42;;;;;;;3.88;3.20;;;;;;;9.84;100.00;100847.75;5030569;28;20492;-85
2024/02/14 10:33:09;;;;;;;3.75;3.45;;;;;;;9.86;100.00;100848.59;5026086;28;20060;-85
2024/02/14 10:35:44;;;;;;;3.53;3.05;;;;;;;9.86;100.00;100847.75;5018912;28;20048;-86
2024/02/14 10:38:12;;;;;;;3.55;3.28;;;;;;;9.89;100.00;100859.03;5032160;28;20041;-84
2024/02/14 10:40:42;;;;;;;3.53;3.30;;;;;;;9.92;100.00;100860.78;5030229;28;20679;-85
2024/02/14 10:43:12;;;;;;;3.08;2.83;;;;;;;9.87;100.00;100859.94;5044837;28;20060;-87
2024/02/14 10:45:39;;;;;;;4.15;3.35;;;;;;;9.88;100.00;100869.50;5039839;28;20488;-86
2024/02/14 10:48:13;;;;;;;2.70;2.50;;;;;;;9.89;100.00;100852.94;5036237;28;20048;-83
2024/02/14 10:50:44;;;;;;;2.95;2.65;;;;;;;9.99;100.00;100854.66;5031310;28;20332;-87
2024/02/14 10:53:18;;;;;;;2.70;2.50;;;;;;;10.01;100.00;100862.50;5053253;28;20054;-86
2024/02/14 10:55:52;;;;;;;3.45;3.15;;;;;;;10.02;100.00;100859.03;5059941;28;20040;-84
2024/02/14 10:58:28;;;;;;;3.05;2.85;;;;;;;10.08;100.00;100859.00;5038799;28;20041;-87
2024/02/14 11:00:55;;;;;;;4.28;2.92;;;;;;;10.06;100.00;100868.59;5037805;28;20044;-85
2024/02/14 11:03:22;;;;;;;3.90;2.45;;;;;;;10.17;100.00;100865.94;5042271;28;20045;-85
2024/02/14 11:06:00;;;;;;;3.10;2.88;;;;;;;10.22;100.00;100862.44;5044259;28;20048;-86
2024/02/14 11:08:32;;;;;;;3.33;3.00;;;;;;;10.25;100.00;100864.16;5036823;28;20069;-86
2024/02/14 11:11:01;;;;;;;2.65;2.55;;;;;;;10.35;100.00;100865.91;5042202;28;20048;-85
2024/02/14 11:13:31;;;;;;;3.38;3.17;;;;;;;10.26;100.00;100860.69;5059039;28;20548;-84
2024/02/14 11:16:04;;;;;;;3.20;3.00;;;;;;;10.35;100.00;100863.28;5047090;28;20052;-86
2024/02/14 11:18:31;;;;;;;3.30;2.97;;;;;;;10.42;100.00;100866.75;5059346;28;20061;-85
2024/02/14 11:20:58;;;;;;;2.50;2.30;;;;;;;10.47;100.00;100867.59;5060389;28;20506;-86
2024/02/14 11:23:26;;;;;;;2.70;2.50;;;;;;;10.45;100.00;100866.72;5042159;28;20131;-84
2024/02/14 11:26:08;;;;;;;2.53;2.33;;;;;;;10.39;100.00;100867.63;5042861;28;20041;-86
2024/02/14 11:28:42;;;;;;;2.70;2.50;;;;;;;10.48;100.00;100873.69;5060867;28;20146;-85
2024/02/14 11:31:10;;;;;;;2.88;2.67;;;;;;;10.49;100.00;100868.44;5041314;28;20459;-85
2024/02/14 11:33:36;;;;;;;2.85;2.65;;;;;;;10.48;100.00;100873.69;5036979;28;20106;-84